sensor_id;sensor_type;location;lat;lon;timestamp;P1;durP1;ratioP1;P2;durP2;ratioP2
18857;SDS011;9558;50.178;8.370;2023-08-12T00:01:46;3.90;;;3.00;;
18857;SDS011;9558;50.178;8.370;2023-08-12T00:04:33;6.40;;;3.50;;
18857;SDS011;9558;50.178;8.370;2023-08-12T00:07:20;4.22;;;2.92;;
18857;SDS011;9558;50.178;8.370;2023-08-12T00:10:07;4.72;;;3.17;;
18857;SDS011;9558;50.178;8.370;2023-08-12T00:12:54;8.18;;;3.25;;
18857;SDS011;9558;50.178;8.370;2023-08-12T00:15:41;6.63;;;2.90;;
18857;SDS011;9558;50.178;8.370;2023-08-12T00:18:29;5.05;;;2.85;;
18857;SDS011;9558;50.178;8.370;2023-08-12T00:21:21;3.83;;;2.63;;
18857;SDS011;9558;50.178;8.370;2023-08-12T00:24:08;7.18;;;2.88;;
18857;SDS011;9558;50.178;8.370;2023-08-12T00:26:55;7.82;;;3.03;;
18857;SDS011;9558;50.178;8.370;2023-08-12T00:29:42;3.67;;;2.70;;
18857;SDS011;9558;50.178;8.370;2023-08-12T00:32:28;9.88;;;2.90;;
18857;SDS011;9558;50.178;8.370;2023-08-12T00:35:16;4.18;;;3.00;;
18857;SDS011;9558;50.178;8.370;2023-08-12T00:38:03;4.18;;;2.83;;
18857;SDS011;9558;50.178;8.370;2023-08-12T00:40:50;4.40;;;3.00;;
18857;SDS011;9558;50.178;8.370;2023-08-12T00:43:37;4.38;;;2.92;;
18857;SDS011;9558;50.178;8.370;2023-08-12T00:46:23;5.68;;;2.83;;
18857;SDS011;9558;50.178;8.370;2023-08-12T00:49:10;4.50;;;2.70;;
18857;SDS011;9558;50.178;8.370;2023-08-12T00:52:00;3.67;;;2.47;;
18857;SDS011;9558;50.178;8.370;2023-08-12T00:54:47;4.45;;;2.80;;
18857;SDS011;9558;50.178;8.370;2023-08-12T00:57:34;4.57;;;2.63;;
18857;SDS011;9558;50.178;8.370;2023-08-12T01:00:21;7.78;;;2.88;;
18857;SDS011;9558;50.178;8.370;2023-08-12T01:03:10;5.47;;;2.78;;
18857;SDS011;9558;50.178;8.370;2023-08-12T01:05:57;3.60;;;2.50;;
18857;SDS011;9558;50.178;8.370;2023-08-12T01:08:47;3.58;;;2.72;;
18857;SDS011;9558;50.178;8.370;2023-08-12T01:11:35;4.45;;;2.92;;
18857;SDS011;9558;50.178;8.370;2023-08-12T01:14:27;7.05;;;2.78;;
18857;SDS011;9558;50.178;8.370;2023-08-12T01:17:17;7.25;;;2.90;;
18857;SDS011;9558;50.178;8.370;2023-08-12T01:20:04;4.22;;;3.30;;
18857;SDS011;9558;50.178;8.370;2023-08-12T01:22:56;3.53;;;2.60;;
18857;SDS011;9558;50.178;8.370;2023-08-12T01:25:45;7.75;;;3.45;;
18857;SDS011;9558;50.178;8.370;2023-08-12T01:28:32;3.72;;;3.00;;
18857;SDS011;9558;50.178;8.370;2023-08-12T01:31:26;3.88;;;2.97;;
18857;SDS011;9558;50.178;8.370;2023-08-12T01:34:20;5.55;;;3.15;;
18857;SDS011;9558;50.178;8.370;2023-08-12T01:37:15;2.85;;;2.40;;
18857;SDS011;9558;50.178;8.370;2023-08-12T01:40:08;8.10;;;2.88;;
18857;SDS011;9558;50.178;8.370;2023-08-12T01:42:58;5.18;;;2.67;;
18857;SDS011;9558;50.178;8.370;2023-08-12T01:45:45;6.95;;;3.17;;
18857;SDS011;9558;50.178;8.370;2023-08-12T01:48:32;5.13;;;3.80;;
18857;SDS011;9558;50.178;8.370;2023-08-12T01:51:19;7.85;;;3.78;;
18857;SDS011;9558;50.178;8.370;2023-08-12T01:54:05;5.90;;;4.03;;
18857;SDS011;9558;50.178;8.370;2023-08-12T01:56:52;9.75;;;3.53;;
18857;SDS011;9558;50.178;8.370;2023-08-12T01:59:40;6.38;;;2.97;;
18857;SDS011;9558;50.178;8.370;2023-08-12T02:02:29;5.68;;;3.00;;
18857;SDS011;9558;50.178;8.370;2023-08-12T02:05:16;4.32;;;2.95;;
18857;SDS011;9558;50.178;8.370;2023-08-12T02:08:03;3.97;;;3.00;;
18857;SDS011;9558;50.178;8.370;2023-08-12T02:10:50;8.18;;;2.80;;
18857;SDS011;9558;50.178;8.370;2023-08-12T02:13:36;3.90;;;2.45;;
18857;SDS011;9558;50.178;8.370;2023-08-12T02:16:24;5.75;;;2.78;;
18857;SDS011;9558;50.178;8.370;2023-08-12T02:19:11;4.40;;;2.80;;
18857;SDS011;9558;50.178;8.370;2023-08-12T02:21:58;6.68;;;3.08;;
18857;SDS011;9558;50.178;8.370;2023-08-12T02:24:45;4.25;;;3.10;;
18857;SDS011;9558;50.178;8.370;2023-08-12T02:27:31;6.68;;;2.72;;
18857;SDS011;9558;50.178;8.370;2023-08-12T02:30:18;4.47;;;2.85;;
18857;SDS011;9558;50.178;8.370;2023-08-12T02:33:06;10.57;;;3.70;;
18857;SDS011;9558;50.178;8.370;2023-08-12T02:35:53;6.35;;;3.55;;
18857;SDS011;9558;50.178;8.370;2023-08-12T02:38:40;8.07;;;4.10;;
18857;SDS011;9558;50.178;8.370;2023-08-12T02:41:27;6.28;;;4.20;;
18857;SDS011;9558;50.178;8.370;2023-08-12T02:44:14;7.95;;;4.25;;
18857;SDS011;9558;50.178;8.370;2023-08-12T02:47:01;6.45;;;4.35;;
18857;SDS011;9558;50.178;8.370;2023-08-12T02:49:49;10.90;;;5.00;;
18857;SDS011;9558;50.178;8.370;2023-08-12T02:52:36;14.77;;;5.38;;
18857;SDS011;9558;50.178;8.370;2023-08-12T02:55:22;11.70;;;5.03;;
18857;SDS011;9558;50.178;8.370;2023-08-12T02:58:09;8.88;;;4.30;;
18857;SDS011;9558;50.178;8.370;2023-08-12T03:00:56;8.15;;;5.00;;
18857;SDS011;9558;50.178;8.370;2023-08-12T03:03:43;14.82;;;7.60;;
18857;SDS011;9558;50.178;8.370;2023-08-12T03:06:31;17.65;;;9.15;;
18857;SDS011;9558;50.178;8.370;2023-08-12T03:09:18;18.85;;;9.10;;
18857;SDS011;9558;50.178;8.370;2023-08-12T03:12:05;18.13;;;8.48;;
18857;SDS011;9558;50.178;8.370;2023-08-12T03:14:53;13.95;;;8.13;;
18857;SDS011;9558;50.178;8.370;2023-08-12T03:17:40;16.70;;;8.57;;
18857;SDS011;9558;50.178;8.370;2023-08-12T03:20:26;20.90;;;9.23;;
18857;SDS011;9558;50.178;8.370;2023-08-12T03:23:15;15.13;;;9.02;;
18857;SDS011;9558;50.178;8.370;2023-08-12T03:26:02;15.05;;;8.30;;
18857;SDS011;9558;50.178;8.370;2023-08-12T03:28:49;15.70;;;9.05;;
18857;SDS011;9558;50.178;8.370;2023-08-12T03:31:37;16.52;;;10.05;;
18857;SDS011;9558;50.178;8.370;2023-08-12T03:34:27;22.60;;;9.93;;
18857;SDS011;9558;50.178;8.370;2023-08-12T03:37:15;19.60;;;10.35;;
18857;SDS011;9558;50.178;8.370;2023-08-12T03:40:03;19.27;;;9.73;;
18857;SDS011;9558;50.178;8.370;2023-08-12T03:42:50;19.35;;;9.55;;
18857;SDS011;9558;50.178;8.370;2023-08-12T03:45:40;20.50;;;11.27;;
18857;SDS011;9558;50.178;8.370;2023-08-12T03:48:27;23.10;;;11.10;;
18857;SDS011;9558;50.178;8.370;2023-08-12T03:51:14;16.40;;;9.82;;
18857;SDS011;9558;50.178;8.370;2023-08-12T03:54:01;18.05;;;9.57;;
18857;SDS011;9558;50.178;8.370;2023-08-12T03:56:50;15.65;;;8.98;;
18857;SDS011;9558;50.178;8.370;2023-08-12T03:59:37;18.25;;;9.18;;
18857;SDS011;9558;50.178;8.370;2023-08-12T04:02:24;18.92;;;10.20;;
18857;SDS011;9558;50.178;8.370;2023-08-12T04:05:10;14.90;;;9.02;;
18857;SDS011;9558;50.178;8.370;2023-08-12T04:07:57;14.98;;;8.90;;
18857;SDS011;9558;50.178;8.370;2023-08-12T04:10:44;18.38;;;8.38;;
18857;SDS011;9558;50.178;8.370;2023-08-12T04:13:34;18.23;;;9.35;;
18857;SDS011;9558;50.178;8.370;2023-08-12T04:16:21;15.50;;;9.18;;
18857;SDS011;9558;50.178;8.370;2023-08-12T04:19:08;13.13;;;8.68;;
18857;SDS011;9558;50.178;8.370;2023-08-12T04:21:55;13.03;;;7.73;;
18857;SDS011;9558;50.178;8.370;2023-08-12T04:24:42;13.60;;;8.18;;
18857;SDS011;9558;50.178;8.370;2023-08-12T04:27:28;16.65;;;8.63;;
18857;SDS011;9558;50.178;8.370;2023-08-12T04:30:17;16.42;;;8.95;;
18857;SDS011;9558;50.178;8.370;2023-08-12T04:33:04;16.92;;;8.27;;
18857;SDS011;9558;50.178;8.370;2023-08-12T04:35:52;16.90;;;8.77;;
18857;SDS011;9558;50.178;8.370;2023-08-12T04:38:39;15.30;;;7.78;;
18857;SDS011;9558;50.178;8.370;2023-08-12T04:41:25;18.50;;;8.20;;
18857;SDS011;9558;50.178;8.370;2023-08-12T04:44:12;15.13;;;7.50;;
18857;SDS011;9558;50.178;8.370;2023-08-12T04:47:00;11.23;;;7.32;;
18857;SDS011;9558;50.178;8.370;2023-08-12T04:49:48;12.05;;;6.90;;
18857;SDS011;9558;50.178;8.370;2023-08-12T04:52:35;15.77;;;7.78;;
18857;SDS011;9558;50.178;8.370;2023-08-12T04:55:21;10.18;;;5.88;;
18857;SDS011;9558;50.178;8.370;2023-08-12T04:58:08;17.88;;;8.55;;
18857;SDS011;9558;50.178;8.370;2023-08-12T05:00:55;13.70;;;7.88;;
18857;SDS011;9558;50.178;8.370;2023-08-12T05:03:44;14.15;;;8.10;;
18857;SDS011;9558;50.178;8.370;2023-08-12T05:06:31;11.90;;;7.55;;
18857;SDS011;9558;50.178;8.370;2023-08-12T05:09:18;17.27;;;8.88;;
18857;SDS011;9558;50.178;8.370;2023-08-12T05:12:05;12.70;;;8.18;;
18857;SDS011;9558;50.178;8.370;2023-08-12T05:14:52;15.25;;;8.02;;
18857;SDS011;9558;50.178;8.370;2023-08-12T05:17:39;14.07;;;8.10;;
18857;SDS011;9558;50.178;8.370;2023-08-12T05:20:27;13.02;;;8.02;;
18857;SDS011;9558;50.178;8.370;2023-08-12T05:23:14;17.35;;;8.50;;
18857;SDS011;9558;50.178;8.370;2023-08-12T05:26:01;12.90;;;7.90;;
18857;SDS011;9558;50.178;8.370;2023-08-12T05:28:48;13.48;;;8.13;;
18857;SDS011;9558;50.178;8.370;2023-08-12T05:31:34;14.30;;;8.32;;
18857;SDS011;9558;50.178;8.370;2023-08-12T05:34:22;12.98;;;7.35;;
18857;SDS011;9558;50.178;8.370;2023-08-12T05:37:10;12.60;;;7.63;;
18857;SDS011;9558;50.178;8.370;2023-08-12T05:39:57;10.57;;;6.88;;
18857;SDS011;9558;50.178;8.370;2023-08-12T05:42:44;11.38;;;6.38;;
18857;SDS011;9558;50.178;8.370;2023-08-12T05:45:30;14.55;;;5.10;;
18857;SDS011;9558;50.178;8.370;2023-08-12T05:48:17;9.85;;;5.45;;
18857;SDS011;9558;50.178;8.370;2023-08-12T05:51:04;6.55;;;4.70;;
18857;SDS011;9558;50.178;8.370;2023-08-12T05:53:52;9.73;;;4.88;;
18857;SDS011;9558;50.178;8.370;2023-08-12T05:56:39;8.30;;;4.55;;
18857;SDS011;9558;50.178;8.370;2023-08-12T05:59:26;8.75;;;4.90;;
18857;SDS011;9558;50.178;8.370;2023-08-12T06:02:13;7.82;;;4.88;;
18857;SDS011;9558;50.178;8.370;2023-08-12T06:05:00;9.93;;;5.75;;
18857;SDS011;9558;50.178;8.370;2023-08-12T06:07:47;10.18;;;6.78;;
18857;SDS011;9558;50.178;8.370;2023-08-12T06:10:35;11.45;;;6.47;;
18857;SDS011;9558;50.178;8.370;2023-08-12T06:13:22;12.05;;;6.15;;
18857;SDS011;9558;50.178;8.370;2023-08-12T06:16:09;9.20;;;6.10;;
18857;SDS011;9558;50.178;8.370;2023-08-12T06:18:56;10.63;;;6.65;;
18857;SDS011;9558;50.178;8.370;2023-08-12T06:21:43;9.55;;;6.68;;
18857;SDS011;9558;50.178;8.370;2023-08-12T06:24:30;12.18;;;6.95;;
18857;SDS011;9558;50.178;8.370;2023-08-12T06:27:18;12.13;;;6.60;;
18857;SDS011;9558;50.178;8.370;2023-08-12T06:30:06;10.65;;;6.72;;
18857;SDS011;9558;50.178;8.370;2023-08-12T06:32:54;11.60;;;6.97;;
18857;SDS011;9558;50.178;8.370;2023-08-12T06:35:41;11.00;;;7.28;;
18857;SDS011;9558;50.178;8.370;2023-08-12T06:38:28;11.68;;;6.78;;
18857;SDS011;9558;50.178;8.370;2023-08-12T06:41:15;12.15;;;7.38;;
18857;SDS011;9558;50.178;8.370;2023-08-12T06:44:03;14.82;;;8.48;;
18857;SDS011;9558;50.178;8.370;2023-08-12T06:46:51;13.50;;;8.02;;
18857;SDS011;9558;50.178;8.370;2023-08-12T06:49:37;12.60;;;7.68;;
18857;SDS011;9558;50.178;8.370;2023-08-12T06:52:24;15.07;;;7.85;;
18857;SDS011;9558;50.178;8.370;2023-08-12T06:55:11;13.57;;;7.43;;
18857;SDS011;9558;50.178;8.370;2023-08-12T06:57:58;12.43;;;8.07;;
18857;SDS011;9558;50.178;8.370;2023-08-12T07:00:46;14.75;;;8.35;;
18857;SDS011;9558;50.178;8.370;2023-08-12T07:03:33;12.90;;;7.60;;
18857;SDS011;9558;50.178;8.370;2023-08-12T07:06:19;12.18;;;7.85;;
18857;SDS011;9558;50.178;8.370;2023-08-12T07:09:06;12.13;;;7.55;;
18857;SDS011;9558;50.178;8.370;2023-08-12T07:11:53;11.93;;;7.75;;
18857;SDS011;9558;50.178;8.370;2023-08-12T07:14:40;12.48;;;8.13;;
18857;SDS011;9558;50.178;8.370;2023-08-12T07:17:28;12.38;;;7.15;;
18857;SDS011;9558;50.178;8.370;2023-08-12T07:20:15;12.57;;;7.10;;
18857;SDS011;9558;50.178;8.370;2023-08-12T07:23:02;13.07;;;7.95;;
18857;SDS011;9558;50.178;8.370;2023-08-12T07:25:49;14.38;;;7.82;;
18857;SDS011;9558;50.178;8.370;2023-08-12T07:28:36;12.35;;;8.38;;
18857;SDS011;9558;50.178;8.370;2023-08-12T07:31:22;11.25;;;7.68;;
18857;SDS011;9558;50.178;8.370;2023-08-12T07:34:11;12.48;;;8.05;;
18857;SDS011;9558;50.178;8.370;2023-08-12T07:36:58;16.83;;;8.60;;
18857;SDS011;9558;50.178;8.370;2023-08-12T07:39:45;16.45;;;8.85;;
18857;SDS011;9558;50.178;8.370;2023-08-12T07:42:35;13.20;;;8.65;;
18857;SDS011;9558;50.178;8.370;2023-08-12T07:45:22;15.73;;;9.30;;
18857;SDS011;9558;50.178;8.370;2023-08-12T07:48:09;16.55;;;9.65;;
18857;SDS011;9558;50.178;8.370;2023-08-12T07:50:58;15.30;;;8.88;;
18857;SDS011;9558;50.178;8.370;2023-08-12T07:53:45;15.00;;;9.43;;
18857;SDS011;9558;50.178;8.370;2023-08-12T07:56:32;15.63;;;9.07;;
18857;SDS011;9558;50.178;8.370;2023-08-12T07:59:19;14.35;;;8.70;;
18857;SDS011;9558;50.178;8.370;2023-08-12T08:02:06;18.45;;;8.80;;
18857;SDS011;9558;50.178;8.370;2023-08-12T08:04:52;13.48;;;8.18;;
18857;SDS011;9558;50.178;8.370;2023-08-12T08:07:41;12.27;;;7.72;;
18857;SDS011;9558;50.178;8.370;2023-08-12T08:10:27;13.13;;;8.05;;
18857;SDS011;9558;50.178;8.370;2023-08-12T08:13:14;11.77;;;8.00;;
18857;SDS011;9558;50.178;8.370;2023-08-12T08:16:01;16.30;;;8.45;;
18857;SDS011;9558;50.178;8.370;2023-08-12T08:18:48;12.27;;;8.10;;
18857;SDS011;9558;50.178;8.370;2023-08-12T08:21:35;11.13;;;8.60;;
18857;SDS011;9558;50.178;8.370;2023-08-12T08:24:23;11.35;;;7.68;;
18857;SDS011;9558;50.178;8.370;2023-08-12T08:27:10;10.55;;;7.30;;
18857;SDS011;9558;50.178;8.370;2023-08-12T08:29:58;10.55;;;6.78;;
18857;SDS011;9558;50.178;8.370;2023-08-12T08:32:45;9.68;;;7.15;;
18857;SDS011;9558;50.178;8.370;2023-08-12T08:35:32;12.10;;;7.80;;
18857;SDS011;9558;50.178;8.370;2023-08-12T08:38:19;12.43;;;7.65;;
18857;SDS011;9558;50.178;8.370;2023-08-12T08:41:08;15.57;;;7.90;;
18857;SDS011;9558;50.178;8.370;2023-08-12T08:43:56;13.85;;;8.63;;
18857;SDS011;9558;50.178;8.370;2023-08-12T08:46:49;14.40;;;8.35;;
18857;SDS011;9558;50.178;8.370;2023-08-12T08:49:38;16.52;;;8.43;;
18857;SDS011;9558;50.178;8.370;2023-08-12T08:52:26;12.65;;;8.23;;
18857;SDS011;9558;50.178;8.370;2023-08-12T08:55:15;13.38;;;7.65;;
18857;SDS011;9558;50.178;8.370;2023-08-12T08:58:04;11.65;;;7.05;;
18857;SDS011;9558;50.178;8.370;2023-08-12T09:00:52;11.85;;;7.47;;
18857;SDS011;9558;50.178;8.370;2023-08-12T09:03:39;13.80;;;8.00;;
18857;SDS011;9558;50.178;8.370;2023-08-12T09:06:26;12.77;;;7.32;;
18857;SDS011;9558;50.178;8.370;2023-08-12T09:09:16;10.57;;;7.25;;
18857;SDS011;9558;50.178;8.370;2023-08-12T09:12:06;7.43;;;6.28;;
18857;SDS011;9558;50.178;8.370;2023-08-12T09:14:56;11.43;;;7.10;;
18857;SDS011;9558;50.178;8.370;2023-08-12T09:17:42;9.80;;;7.07;;
18857;SDS011;9558;50.178;8.370;2023-08-12T09:20:29;11.80;;;6.88;;
18857;SDS011;9558;50.178;8.370;2023-08-12T09:23:17;10.88;;;7.20;;
18857;SDS011;9558;50.178;8.370;2023-08-12T09:26:10;10.15;;;6.50;;
18857;SDS011;9558;50.178;8.370;2023-08-12T09:29:00;10.70;;;7.20;;
18857;SDS011;9558;50.178;8.370;2023-08-12T09:31:48;11.95;;;8.30;;
18857;SDS011;9558;50.178;8.370;2023-08-12T09:34:35;12.43;;;8.80;;
18857;SDS011;9558;50.178;8.370;2023-08-12T09:37:23;12.73;;;7.95;;
18857;SDS011;9558;50.178;8.370;2023-08-12T09:40:11;12.57;;;8.18;;
18857;SDS011;9558;50.178;8.370;2023-08-12T09:42:58;13.10;;;7.65;;
18857;SDS011;9558;50.178;8.370;2023-08-12T09:45:45;11.10;;;7.07;;
18857;SDS011;9558;50.178;8.370;2023-08-12T09:48:33;7.90;;;5.53;;
18857;SDS011;9558;50.178;8.370;2023-08-12T09:51:21;11.48;;;5.57;;
18857;SDS011;9558;50.178;8.370;2023-08-12T09:54:08;8.73;;;4.47;;
18857;SDS011;9558;50.178;8.370;2023-08-12T09:56:57;4.03;;;3.50;;
18857;SDS011;9558;50.178;8.370;2023-08-12T09:59:45;6.20;;;4.35;;
18857;SDS011;9558;50.178;8.370;2023-08-12T10:02:32;4.60;;;3.80;;
18857;SDS011;9558;50.178;8.370;2023-08-12T10:05:22;5.40;;;3.95;;
18857;SDS011;9558;50.178;8.370;2023-08-12T10:08:13;6.43;;;4.43;;
18857;SDS011;9558;50.178;8.370;2023-08-12T10:11:00;6.88;;;4.30;;
18857;SDS011;9558;50.178;8.370;2023-08-12T10:13:48;5.43;;;4.50;;
18857;SDS011;9558;50.178;8.370;2023-08-12T10:16:35;5.65;;;4.38;;
18857;SDS011;9558;50.178;8.370;2023-08-12T10:19:22;5.20;;;4.07;;
18857;SDS011;9558;50.178;8.370;2023-08-12T10:22:11;5.07;;;4.15;;
18857;SDS011;9558;50.178;8.370;2023-08-12T10:25:01;5.80;;;4.05;;
18857;SDS011;9558;50.178;8.370;2023-08-12T10:27:49;9.38;;;5.05;;
18857;SDS011;9558;50.178;8.370;2023-08-12T10:30:35;6.90;;;5.20;;
18857;SDS011;9558;50.178;8.370;2023-08-12T10:33:23;10.35;;;6.22;;
18857;SDS011;9558;50.178;8.370;2023-08-12T10:36:09;12.23;;;7.68;;
18857;SDS011;9558;50.178;8.370;2023-08-12T10:38:58;13.23;;;7.28;;
18857;SDS011;9558;50.178;8.370;2023-08-12T10:41:51;10.65;;;7.00;;
18857;SDS011;9558;50.178;8.370;2023-08-12T10:44:49;13.20;;;7.30;;
18857;SDS011;9558;50.178;8.370;2023-08-12T10:47:39;12.30;;;8.27;;
18857;SDS011;9558;50.178;8.370;2023-08-12T10:50:26;14.15;;;7.65;;
18857;SDS011;9558;50.178;8.370;2023-08-12T10:53:20;12.63;;;8.00;;
18857;SDS011;9558;50.178;8.370;2023-08-12T10:56:16;10.60;;;6.18;;
18857;SDS011;9558;50.178;8.370;2023-08-12T10:59:03;10.25;;;6.18;;
18857;SDS011;9558;50.178;8.370;2023-08-12T11:01:50;8.48;;;4.82;;
18857;SDS011;9558;50.178;8.370;2023-08-12T11:04:39;7.85;;;4.80;;
18857;SDS011;9558;50.178;8.370;2023-08-12T11:07:31;6.78;;;3.50;;
18857;SDS011;9558;50.178;8.370;2023-08-12T11:10:21;7.85;;;3.60;;
18857;SDS011;9558;50.178;8.370;2023-08-12T11:13:12;5.43;;;3.50;;
18857;SDS011;9558;50.178;8.370;2023-08-12T11:16:05;5.57;;;3.53;;
18857;SDS011;9558;50.178;8.370;2023-08-12T11:18:54;7.43;;;3.60;;
18857;SDS011;9558;50.178;8.370;2023-08-12T11:21:42;9.23;;;4.65;;
18857;SDS011;9558;50.178;8.370;2023-08-12T11:24:30;6.30;;;3.20;;
18857;SDS011;9558;50.178;8.370;2023-08-12T11:27:18;4.03;;;3.00;;
18857;SDS011;9558;50.178;8.370;2023-08-12T11:30:08;4.38;;;2.88;;
18857;SDS011;9558;50.178;8.370;2023-08-12T11:32:57;6.35;;;2.85;;
18857;SDS011;9558;50.178;8.370;2023-08-12T11:35:46;4.20;;;2.38;;
18857;SDS011;9558;50.178;8.370;2023-08-12T11:38:33;4.22;;;2.55;;
18857;SDS011;9558;50.178;8.370;2023-08-12T11:41:22;4.30;;;2.13;;
18857;SDS011;9558;50.178;8.370;2023-08-12T11:44:11;2.17;;;1.92;;
18857;SDS011;9558;50.178;8.370;2023-08-12T11:47:00;4.43;;;1.90;;
18857;SDS011;9558;50.178;8.370;2023-08-12T11:49:46;4.40;;;2.30;;
18857;SDS011;9558;50.178;8.370;2023-08-12T11:52:33;4.40;;;2.15;;
18857;SDS011;9558;50.178;8.370;2023-08-12T11:55:22;3.72;;;1.98;;
18857;SDS011;9558;50.178;8.370;2023-08-12T11:58:09;2.53;;;2.05;;
18857;SDS011;9558;50.178;8.370;2023-08-12T12:00:58;3.45;;;2.08;;
18857;SDS011;9558;50.178;8.370;2023-08-12T12:03:46;2.90;;;1.80;;
18857;SDS011;9558;50.178;8.370;2023-08-12T12:06:37;5.30;;;2.30;;
18857;SDS011;9558;50.178;8.370;2023-08-12T12:09:24;2.97;;;2.50;;
18857;SDS011;9558;50.178;8.370;2023-08-12T12:12:11;5.20;;;2.80;;
18857;SDS011;9558;50.178;8.370;2023-08-12T12:14:58;3.80;;;2.13;;
18857;SDS011;9558;50.178;8.370;2023-08-12T12:17:45;3.08;;;2.03;;
18857;SDS011;9558;50.178;8.370;2023-08-12T12:20:34;4.25;;;1.80;;
18857;SDS011;9558;50.178;8.370;2023-08-12T12:23:21;4.38;;;1.80;;
18857;SDS011;9558;50.178;8.370;2023-08-12T12:26:09;2.70;;;1.42;;
18857;SDS011;9558;50.178;8.370;2023-08-12T12:28:56;2.42;;;1.20;;
18857;SDS011;9558;50.178;8.370;2023-08-12T12:31:43;1.20;;;1.10;;
18857;SDS011;9558;50.178;8.370;2023-08-12T12:34:30;1.77;;;1.33;;
18857;SDS011;9558;50.178;8.370;2023-08-12T12:37:18;1.65;;;1.27;;
18857;SDS011;9558;50.178;8.370;2023-08-12T12:40:05;2.42;;;1.20;;
18857;SDS011;9558;50.178;8.370;2023-08-12T12:42:53;2.65;;;1.27;;
18857;SDS011;9558;50.178;8.370;2023-08-12T12:45:40;5.53;;;1.30;;
18857;SDS011;9558;50.178;8.370;2023-08-12T12:48:27;3.53;;;1.40;;
18857;SDS011;9558;50.178;8.370;2023-08-12T12:51:14;2.58;;;1.65;;
18857;SDS011;9558;50.178;8.370;2023-08-12T12:54:03;2.47;;;1.40;;
18857;SDS011;9558;50.178;8.370;2023-08-12T12:56:50;1.65;;;1.55;;
18857;SDS011;9558;50.178;8.370;2023-08-12T12:59:37;2.10;;;1.58;;
18857;SDS011;9558;50.178;8.370;2023-08-12T13:02:23;3.70;;;1.42;;
18857;SDS011;9558;50.178;8.370;2023-08-12T13:05:10;3.70;;;1.60;;
18857;SDS011;9558;50.178;8.370;2023-08-12T13:07:57;2.20;;;1.23;;
18857;SDS011;9558;50.178;8.370;2023-08-12T13:10:45;4.65;;;2.50;;
18857;SDS011;9558;50.178;8.370;2023-08-12T13:13:32;4.40;;;1.83;;
18857;SDS011;9558;50.178;8.370;2023-08-12T13:16:19;2.83;;;1.90;;
18857;SDS011;9558;50.178;8.370;2023-08-12T13:19:06;2.88;;;1.58;;
18857;SDS011;9558;50.178;8.370;2023-08-12T13:21:53;3.05;;;1.48;;
18857;SDS011;9558;50.178;8.370;2023-08-12T13:24:40;2.22;;;1.40;;
18857;SDS011;9558;50.178;8.370;2023-08-12T13:27:28;2.47;;;1.60;;
18857;SDS011;9558;50.178;8.370;2023-08-12T13:30:15;2.92;;;1.63;;
18857;SDS011;9558;50.178;8.370;2023-08-12T13:33:02;2.70;;;1.95;;
18857;SDS011;9558;50.178;8.370;2023-08-12T13:35:50;4.65;;;2.13;;
18857;SDS011;9558;50.178;8.370;2023-08-12T13:38:37;2.08;;;1.90;;
18857;SDS011;9558;50.178;8.370;2023-08-12T13:41:24;2.85;;;1.85;;
18857;SDS011;9558;50.178;8.370;2023-08-12T13:44:13;3.08;;;1.83;;
18857;SDS011;9558;50.178;8.370;2023-08-12T13:47:00;2.00;;;1.80;;
18857;SDS011;9558;50.178;8.370;2023-08-12T13:49:46;4.57;;;1.88;;
18857;SDS011;9558;50.178;8.370;2023-08-12T13:52:33;2.33;;;1.80;;
18857;SDS011;9558;50.178;8.370;2023-08-12T13:55:20;3.25;;;1.80;;
18857;SDS011;9558;50.178;8.370;2023-08-12T13:58:07;2.58;;;1.80;;
18857;SDS011;9558;50.178;8.370;2023-08-12T14:00:55;2.80;;;2.08;;
18857;SDS011;9558;50.178;8.370;2023-08-12T14:03:42;3.95;;;1.90;;
18857;SDS011;9558;50.178;8.370;2023-08-12T14:06:29;1.60;;;1.50;;
18857;SDS011;9558;50.178;8.370;2023-08-12T14:09:16;4.00;;;1.92;;
18857;SDS011;9558;50.178;8.370;2023-08-12T14:12:06;3.63;;;2.45;;
18857;SDS011;9558;50.178;8.370;2023-08-12T14:14:54;4.18;;;1.50;;
18857;SDS011;9558;50.178;8.370;2023-08-12T14:17:42;2.83;;;2.05;;
18857;SDS011;9558;50.178;8.370;2023-08-12T14:20:29;2.90;;;2.15;;
18857;SDS011;9558;50.178;8.370;2023-08-12T14:23:15;3.97;;;2.10;;
18857;SDS011;9558;50.178;8.370;2023-08-12T14:26:02;3.22;;;2.08;;
18857;SDS011;9558;50.178;8.370;2023-08-12T14:28:49;5.53;;;2.42;;
18857;SDS011;9558;50.178;8.370;2023-08-12T14:31:36;2.55;;;1.83;;
18857;SDS011;9558;50.178;8.370;2023-08-12T14:34:24;3.67;;;1.98;;
18857;SDS011;9558;50.178;8.370;2023-08-12T14:37:11;3.95;;;2.22;;
18857;SDS011;9558;50.178;8.370;2023-08-12T14:39:58;4.05;;;1.80;;
18857;SDS011;9558;50.178;8.370;2023-08-12T14:42:45;2.38;;;1.63;;
18857;SDS011;9558;50.178;8.370;2023-08-12T14:45:34;3.42;;;1.90;;
18857;SDS011;9558;50.178;8.370;2023-08-12T14:48:21;2.28;;;1.63;;
18857;SDS011;9558;50.178;8.370;2023-08-12T14:51:09;5.20;;;1.88;;
18857;SDS011;9558;50.178;8.370;2023-08-12T14:53:56;2.85;;;1.52;;
18857;SDS011;9558;50.178;8.370;2023-08-12T14:56:43;2.95;;;1.70;;
18857;SDS011;9558;50.178;8.370;2023-08-12T14:59:30;4.25;;;1.83;;
18857;SDS011;9558;50.178;8.370;2023-08-12T15:02:16;2.60;;;1.45;;
18857;SDS011;9558;50.178;8.370;2023-08-12T15:05:04;5.70;;;1.55;;
18857;SDS011;9558;50.178;8.370;2023-08-12T15:07:52;3.45;;;1.52;;
18857;SDS011;9558;50.178;8.370;2023-08-12T15:10:39;3.63;;;1.70;;
18857;SDS011;9558;50.178;8.370;2023-08-12T15:13:26;3.13;;;1.55;;
18857;SDS011;9558;50.178;8.370;2023-08-12T15:16:12;2.08;;;1.52;;
18857;SDS011;9558;50.178;8.370;2023-08-12T15:18:59;3.65;;;1.35;;
18857;SDS011;9558;50.178;8.370;2023-08-12T15:21:46;1.42;;;1.27;;
18857;SDS011;9558;50.178;8.370;2023-08-12T15:24:35;3.05;;;1.23;;
18857;SDS011;9558;50.178;8.370;2023-08-12T15:27:23;2.22;;;1.33;;
18857;SDS011;9558;50.178;8.370;2023-08-12T15:30:10;2.05;;;1.10;;
18857;SDS011;9558;50.178;8.370;2023-08-12T15:32:57;1.58;;;1.00;;
18857;SDS011;9558;50.178;8.370;2023-08-12T15:35:43;4.22;;;1.30;;
18857;SDS011;9558;50.178;8.370;2023-08-12T15:38:30;7.15;;;1.10;;
18857;SDS011;9558;50.178;8.370;2023-08-12T15:41:18;5.57;;;1.45;;
18857;SDS011;9558;50.178;8.370;2023-08-12T15:44:07;2.55;;;1.33;;
18857;SDS011;9558;50.178;8.370;2023-08-12T15:46:54;2.65;;;1.20;;
18857;SDS011;9558;50.178;8.370;2023-08-12T15:49:40;3.22;;;1.02;;
18857;SDS011;9558;50.178;8.370;2023-08-12T15:52:27;2.65;;;1.38;;
18857;SDS011;9558;50.178;8.370;2023-08-12T15:55:18;2.70;;;1.40;;
18857;SDS011;9558;50.178;8.370;2023-08-12T15:58:06;0.93;;;0.90;;
18857;SDS011;9558;50.178;8.370;2023-08-12T16:00:53;1.80;;;0.90;;
18857;SDS011;9558;50.178;8.370;2023-08-12T16:03:40;4.95;;;1.05;;
18857;SDS011;9558;50.178;8.370;2023-08-12T16:06:27;2.53;;;1.15;;
18857;SDS011;9558;50.178;8.370;2023-08-12T16:09:14;1.70;;;1.00;;
18857;SDS011;9558;50.178;8.370;2023-08-12T16:12:01;3.00;;;1.30;;
18857;SDS011;9558;50.178;8.370;2023-08-12T16:14:50;4.53;;;1.40;;
18857;SDS011;9558;50.178;8.370;2023-08-12T16:17:37;1.77;;;0.90;;
18857;SDS011;9558;50.178;8.370;2023-08-12T16:20:24;1.40;;;1.17;;
18857;SDS011;9558;50.178;8.370;2023-08-12T16:23:11;2.50;;;1.30;;
18857;SDS011;9558;50.178;8.370;2023-08-12T16:25:58;2.90;;;1.20;;
18857;SDS011;9558;50.178;8.370;2023-08-12T16:28:45;1.73;;;1.23;;
18857;SDS011;9558;50.178;8.370;2023-08-12T16:31:33;3.40;;;1.10;;
18857;SDS011;9558;50.178;8.370;2023-08-12T16:34:21;3.10;;;1.20;;
18857;SDS011;9558;50.178;8.370;2023-08-12T16:37:08;3.63;;;1.52;;
18857;SDS011;9558;50.178;8.370;2023-08-12T16:39:54;1.20;;;1.08;;
18857;SDS011;9558;50.178;8.370;2023-08-12T16:42:42;3.40;;;1.23;;
18857;SDS011;9558;50.178;8.370;2023-08-12T16:45:29;2.10;;;1.33;;
18857;SDS011;9558;50.178;8.370;2023-08-12T16:48:17;1.50;;;1.35;;
18857;SDS011;9558;50.178;8.370;2023-08-12T16:51:03;2.03;;;1.30;;
18857;SDS011;9558;50.178;8.370;2023-08-12T16:53:50;1.50;;;1.38;;
18857;SDS011;9558;50.178;8.370;2023-08-12T16:56:37;2.55;;;1.30;;
18857;SDS011;9558;50.178;8.370;2023-08-12T16:59:24;2.55;;;1.20;;